Time;durP1;ratioP1;P1;durP2;ratioP2;P2;SDS_P1;SDS_P2;PMS_P1;PMS_P2;Temp;Humidity;BMP_temperature;BMP_pressure;BME280_temperature;BME280_humidity;BME280_pressure;Samples;Min_cycle;Max_cycle;Signal;HPM_P1;HPM_P2
2024/02/10 00:00:15;;;;;;;;;;;;;;;18.65;61.40;99909.25;7393613;19;1779;-34
2024/02/10 00:02:43;;;;;;;;;;;;;;;18.71;61.58;99927.38;7390757;19;1487;-34
2024/02/10 00:05:13;;;;;;;;;;;;;;;18.65;61.52;99920.81;7394093;19;1289;-33
2024/02/10 00:07:41;;;;;;;;;;;;;;;18.63;61.67;99913.94;7393332;19;1497;-34
2024/02/10 00:10:12;;;;;;;;;;;;;;;18.68;61.50;99923.19;7392819;19;1592;-34
2024/02/10 00:12:41;;;;;;;;;;;;;;;18.68;61.59;99917.84;7394692;19;1182;-33
2024/02/10 00:15:10;;;;;;;;;;;;;;;18.63;61.57;99928.16;7392444;19;1160;-34
2024/02/10 00:17:38;;;;;;;;;;;;;;;18.58;61.74;99921.56;7392178;19;1870;-33
2024/02/10 00:20:09;;;;;;;;;;;;;;;18.61;61.82;99914.06;7392468;19;1534;-34
2024/02/10 00:22:38;;;;;;;;;;;;;;;18.62;61.47;99910.41;7391925;19;1218;-33
2024/02/10 00:25:09;;;;;;;;;;;;;;;18.62;61.34;99913.09;7391843;19;1594;-34
2024/02/10 00:27:42;;;;;;;;;;;;;;;18.62;61.53;99909.56;7391676;19;1278;-34
2024/02/10 00:30:11;;;;;;;;;;;;;;;18.65;61.29;99923.47;7393254;19;1557;-33
2024/02/10 00:32:39;;;;;;;;;;;;;;;18.71;61.47;99926.56;7392391;19;1207;-34
2024/02/10 00:35:08;;;;;;;;;;;;;;;18.60;61.30;99911.53;7393104;19;1589;-34
2024/02/10 00:37:36;;;;;;;;;;;;;;;18.60;61.44;99909.72;7393374;19;1845;-33
2024/02/10 00:40:05;;;;;;;;;;;;;;;18.52;61.77;99909.63;7393845;19;1060;-33
2024/02/10 00:42:33;;;;;;;;;;;;;;;18.33;62.39;99910.63;7393852;19;1362;-34
2024/02/10 00:45:09;;;;;;;;;;;;;;;18.47;62.23;99909.25;7392436;19;1916;-34
2024/02/10 00:47:37;;;;;;;;;;;;;;;18.49;61.97;99917.97;7392358;19;1394;-34
2024/02/10 00:50:06;;;;;;;;;;;;;;;18.51;62.08;99905.28;7391308;19;1759;-33
2024/02/10 00:52:34;;;;;;;;;;;;;;;18.56;61.73;99892.28;7391665;19;1645;-34
2024/02/10 00:55:02;;;;;;;;;;;;;;;18.49;61.78;99891.22;7390821;19;1815;-33
2024/02/10 00:57:31;;;;;;;;;;;;;;;18.26;62.51;99897.03;7391303;19;1869;-34
2024/02/10 00:59:59;;;;;;;;;;;;;;;18.25;62.82;99892.66;7390656;19;1298;-33
2024/02/10 01:02:32;;;;;;;;;;;;;;;18.35;62.56;99915.84;7390967;19;1618;-34
2024/02/10 01:05:01;;;;;;;;;;;;;;;18.49;62.17;99908.09;7389671;19;1503;-34
2024/02/10 01:07:30;;;;;;;;;;;;;;;18.58;61.81;99917.06;7390837;19;1168;-33
2024/02/10 01:09:58;;;;;;;;;;;;;;;18.54;61.77;99921.03;7390793;19;1728;-34
2024/02/10 01:12:26;;;;;;;;;;;;;;;18.56;61.59;99916.38;7390635;19;1121;-34
2024/02/10 01:14:57;;;;;;;;;;;;;;;18.58;61.63;99913.53;7390110;19;1378;-34
2024/02/10 01:17:27;;;;;;;;;;;;;;;18.54;62.00;99899.59;7389919;19;1886;-34
2024/02/10 01:19:58;;;;;;;;;;;;;;;18.38;62.30;99904.81;7389823;19;1540;-34
2024/02/10 01:22:29;;;;;;;;;;;;;;;18.37;62.40;99905.81;7389028;19;1837;-33
2024/02/10 01:24:58;;;;;;;;;;;;;;;18.41;62.29;99910.72;7389090;19;1803;-33
2024/02/10 01:27:28;;;;;;;;;;;;;;;18.48;62.07;99886.84;7391328;19;1230;-34
2024/02/10 01:29:56;;;;;;;;;;;;;;;18.48;62.04;99889.50;7390402;19;1495;-34
2024/02/10 01:32:24;;;;;;;;;;;;;;;18.41;61.92;99889.28;7389792;19;1479;-33
2024/02/10 01:34:54;;;;;;;;;;;;;;;18.43;62.07;99881.13;7390191;19;1465;-34
2024/02/10 01:37:26;;;;;;;;;;;;;;;18.32;62.33;99878.66;7390346;19;2438;-34
2024/02/10 01:39:55;;;;;;;;;;;;;;;18.28;62.50;99902.22;7391213;19;1038;-33
2024/02/10 01:42:37;;;;;;;;;;;;;;;18.31;62.64;99899.25;7390563;19;1398;-35
2024/02/10 01:45:07;;;;;;;;;;;;;;;18.39;62.34;99887.78;7388229;19;1456;-33
2024/02/10 01:47:36;;;;;;;;;;;;;;;18.46;61.95;99886.16;7389651;19;1945;-34
2024/02/10 01:50:04;;;;;;;;;;;;;;;18.44;61.92;99894.34;7390540;19;1491;-33
2024/02/10 01:52:36;;;;;;;;;;;;;;;18.48;61.96;99905.56;7390208;19;1366;-34
2024/02/10 01:55:05;;;;;;;;;;;;;;;18.52;61.75;99906.94;7389267;19;1349;-34
2024/02/10 01:57:33;;;;;;;;;;;;;;;18.37;62.33;99905.81;7388993;19;1837;-34
2024/02/10 02:00:05;;;;;;;;;;;;;;;18.33;62.35;99896.41;7389219;19;1222;-33
2024/02/10 02:02:34;;;;;;;;;;;;;;;18.37;62.29;99897.78;7387481;19;1468;-34
2024/02/10 02:05:02;;;;;;;;;;;;;;;18.44;61.93;99899.72;7387096;19;1463;-34
2024/02/10 02:07:32;;;;;;;;;;;;;;;18.46;62.04;99899.53;7390071;19;1741;-34
2024/02/10 02:10:03;;;;;;;;;;;;;;;18.47;61.90;99893.19;7390223;19;1546;-33
2024/02/10 02:12:32;;;;;;;;;;;;;;;18.35;61.91;99886.41;7389656;19;1129;-33
2024/02/10 02:15:00;;;;;;;;;;;;;;;18.36;62.04;99902.28;7388972;19;1840;-34
2024/02/10 02:17:29;;;;;;;;;;;;;;;18.23;62.31;99897.31;7388149;19;1878;-34
2024/02/10 02:19:57;;;;;;;;;;;;;;;18.29;62.52;99896.72;7388514;19;1384;-34
2024/02/10 02:22:27;;;;;;;;;;;;;;;18.36;62.12;99904.13;7386899;19;1717;-33
2024/02/10 02:24:58;;;;;;;;;;;;;;;18.39;62.16;99895.81;7387430;19;1749;-33
2024/02/10 02:27:26;;;;;;;;;;;;;;;18.30;62.25;99892.19;7389485;19;1765;-33
2024/02/10 02:29:54;;;;;;;;;;;;;;;18.47;62.13;99877.13;7389024;19;1416;-34
2024/02/10 02:32:23;;;;;;;;;;;;;;;18.57;61.56;99879.75;7388104;19;1879;-33
2024/02/10 02:34:52;;;;;;;;;;;;;;;18.45;61.75;99876.44;7389487;19;1743;-34
2024/02/10 02:37:22;;;;;;;;;;;;;;;18.44;61.68;99880.97;7388818;19;1866;-34
2024/02/10 02:39:51;;;;;;;;;;;;;;;18.36;62.14;99874.69;7388064;19;1946;-33
2024/02/10 02:42:22;;;;;;;;;;;;;;;18.26;62.49;99890.81;7387932;19;1230;-33
2024/02/10 02:44:51;;;;;;;;;;;;;;;18.29;62.28;99877.97;7388170;19;1479;-33
2024/02/10 02:47:20;;;;;;;;;;;;;;;18.39;62.24;99890.44;7388662;19;1252;-34
2024/02/10 02:49:48;;;;;;;;;;;;;;;18.43;61.98;99894.50;7389418;19;1402;-34
2024/02/10 02:52:17;;;;;;;;;;;;;;;18.43;61.87;99881.13;7388320;19;1254;-33
2024/02/10 02:54:47;;;;;;;;;;;;;;;18.38;62.12;99860.19;7387436;19;1394;-34
2024/02/10 02:57:18;;;;;;;;;;;;;;;18.42;61.93;99880.28;7391648;19;1246;-33
2024/02/10 02:59:49;;;;;;;;;;;;;;;18.34;62.01;99916.81;7395492;19;1551;-34
2024/02/10 03:02:18;;;;;;;;;;;;;;;18.23;62.53;99865.22;7394429;19;1028;-34
2024/02/10 03:04:47;;;;;;;;;;;;;;;18.14;62.68;99868.78;7395240;19;1887;-34
2024/02/10 03:07:15;;;;;;;;;;;;;;;18.21;62.57;99864.53;7395419;19;1764;-35
2024/02/10 03:09:44;;;;;;;;;;;;;;;18.28;62.36;99889.69;7395145;19;1416;-33
2024/02/10 03:12:13;;;;;;;;;;;;;;;18.31;62.12;99887.69;7394799;19;1003;-34
2024/02/10 03:14:41;;;;;;;;;;;;;;;18.32;62.17;99905.44;7395702;19;1891;-33
2024/02/10 03:17:12;;;;;;;;;;;;;;;18.34;61.96;99903.44;7395566;19;1760;-34
2024/02/10 03:19:48;;;;;;;;;;;;;;;18.40;62.03;99897.47;7392858;19;1840;-34
2024/02/10 03:22:17;;;;;;;;;;;;;;;18.48;61.81;99905.56;7394455;19;1390;-33
2024/02/10 03:24:47;;;;;;;;;;;;;;;18.34;62.05;99887.38;7395287;19;1735;-34
2024/02/10 03:27:15;;;;;;;;;;;;;;;18.20;62.58;99881.56;7393783;19;1643;-34
2024/02/10 03:29:45;;;;;;;;;;;;;;;18.28;62.50;99884.34;7394429;19;1637;-33
2024/02/10 03:32:16;;;;;;;;;;;;;;;18.31;62.33;99898.41;7394250;19;1709;-33
2024/02/10 03:34:44;;;;;;;;;;;;;;;18.25;62.70;99900.69;7394952;19;1234;-34
2024/02/10 03:37:15;;;;;;;;;;;;;;;18.26;62.60;99885.47;7392100;19;1885;-34
2024/02/10 03:39:43;;;;;;;;;;;;;;;18.32;62.58;99913.47;7392701;19;1864;-34
2024/02/10 03:42:11;;;;;;;;;;;;;;;18.29;62.41;99910.09;7394350;19;1723;-34
2024/02/10 03:44:39;;;;;;;;;;;;;;;18.31;62.37;99909.13;7395550;19;1034;-33
2024/02/10 03:47:09;;;;;;;;;;;;;;;18.19;62.72;99901.28;7394590;19;1831;-33
2024/02/10 03:49:40;;;;;;;;;;;;;;;18.29;62.43;99907.41;7393012;19;1572;-34
2024/02/10 03:52:08;;;;;;;;;;;;;;;18.14;63.17;99906.25;7392816;19;1595;-34
2024/02/10 03:54:37;;;;;;;;;;;;;;;18.14;63.36;99898.22;7394012;19;1698;-35
2024/02/10 03:57:05;;;;;;;;;;;;;;;18.25;63.00;99914.06;7393621;19;1826;-34
2024/02/10 03:59:34;;;;;;;;;;;;;;;18.23;63.04;99907.19;7391369;19;1845;-34
2024/02/10 04:02:03;;;;;;;;;;;;;;;18.19;62.85;99890.59;7392773;19;1451;-33
2024/02/10 04:04:31;;;;;;;;;;;;;;;18.49;62.09;99893.88;7392305;19;1824;-33
2024/02/10 04:07:02;;;;;;;;;;;;;;;18.87;61.20;99881.19;7388483;19;1826;-34
2024/02/10 04:09:31;;;;;;;;;;;;;;;18.91;61.29;99890.56;7392752;19;1487;-34
2024/02/10 04:12:02;;;;;;;;;;;;;;;18.79;61.35;99892.66;7393962;19;1011;-33
2024/02/10 04:14:30;;;;;;;;;;;;;;;18.66;61.78;99898.41;7389830;19;2464;-34
2024/02/10 04:16:58;;;;;;;;;;;;;;;18.55;62.17;99912.00;7391158;19;1557;-34
2024/02/10 04:19:30;;;;;;;;;;;;;;;18.46;62.17;99900.41;7391361;19;1806;-38
2024/02/10 04:21:58;;;;;;;;;;;;;;;18.91;61.24;99900.47;7392061;19;1416;-34
2024/02/10 04:24:29;;;;;;;;;;;;;;;19.01;60.91;99915.44;7392184;19;1756;-34
2024/02/10 04:26:58;;;;;;;;;;;;;;;19.19;60.43;99914.56;7390852;19;2444;-34
2024/02/10 04:29:26;;;;;;;;;;;;;;;19.13;60.72;99905.31;7393865;19;1130;-34
2024/02/10 04:31:56;;;;;;;;;;;;;;;18.94;61.02;99933.16;7392479;19;1251;-34
2024/02/10 04:34:30;;;;;;;;;;;;;;;18.78;61.60;99920.44;7392496;19;1893;-32
2024/02/10 04:36:59;;;;;;;;;;;;;;;18.62;61.85;99928.28;7392129;19;1892;-32
2024/02/10 04:39:30;;;;;;;;;;;;;;;18.70;61.82;99931.03;7390487;19;1842;-34
2024/02/10 04:41:58;;;;;;;;;;;;;;;19.16;60.43;99925.56;7391733;19;1397;-34
2024/02/10 04:44:26;;;;;;;;;;;;;;;19.16;60.68;99909.50;7392030;19;1756;-34
2024/02/10 04:46:54;;;;;;;;;;;;;;;19.02;60.76;99906.41;7389276;19;2426;-31
2024/02/10 04:49:25;;;;;;;;;;;;;;;18.93;61.11;99928.78;7391392;19;1400;-34
2024/02/10 04:51:54;;;;;;;;;;;;;;;18.78;61.28;99907.03;7391067;19;1531;-34
2024/02/10 04:54:22;;;;;;;;;;;;;;;18.68;61.44;99923.19;7389446;19;1420;-48
2024/02/10 04:56:53;;;;;;;;;;;;;;;18.81;61.59;99921.97;7391202;19;1207;-34
2024/02/10 04:59:26;;;;;;;;;;;;;;;19.14;60.30;99907.00;7390799;19;1855;-34
2024/02/10 05:01:55;;;;;;;;;;;;;;;19.21;60.46;99917.91;7389927;19;1471;-34
2024/02/10 05:04:24;;;;;;;;;;;;;;;19.00;60.88;99903.03;7389671;19;1450;-34
2024/02/10 05:06:52;;;;;;;;;;;;;;;18.93;61.01;99901.16;7391027;19;1534;-34
2024/02/10 05:09:21;;;;;;;;;;;;;;;18.80;61.21;99889.00;7392185;19;1241;-34
2024/02/10 05:11:49;;;;;;;;;;;;;;;18.69;61.57;99903.44;7391499;19;1926;-33
2024/02/10 05:14:22;;;;;;;;;;;;;;;18.94;61.20;99906.34;7388162;19;1370;-33
2024/02/10 05:16:50;;;;;;;;;;;;;;;19.14;60.43;99892.72;7390180;19;1490;-34
2024/02/10 05:19:20;;;;;;;;;;;;;;;19.25;60.38;99903.19;7388062;19;1857;-34
2024/02/10 05:21:48;;;;;;;;;;;;;;;19.00;60.99;99926.28;7390785;19;1795;-34
2024/02/10 05:24:17;;;;;;;;;;;;;;;18.87;61.23;99916.00;7390571;19;1251;-34
2024/02/10 05:26:45;;;;;;;;;;;;;;;18.81;61.21;99927.34;7392140;19;1038;-34
2024/02/10 05:29:14;;;;;;;;;;;;;;;18.73;61.42;99936.09;7391201;19;1021;-35
2024/02/10 05:31:47;;;;;;;;;;;;;;;18.96;60.86;99930.28;7390796;19;1907;-34
2024/02/10 05:34:18;;;;;;;;;;;;;;;19.18;60.26;99918.22;7390181;19;1496;-33
2024/02/10 05:36:46;;;;;;;;;;;;;;;19.26;60.36;99923.66;7390328;19;1587;-33
2024/02/10 05:39:18;;;;;;;;;;;;;;;18.98;60.95;99923.81;7390149;19;1841;-34
2024/02/10 05:41:48;;;;;;;;;;;;;;;18.94;60.79;99935.81;7389159;19;1423;-33
2024/02/10 05:44:16;;;;;;;;;;;;;;;18.80;61.19;99925.63;7387484;19;1432;-33
2024/02/10 05:46:48;;;;;;;;;;;;;;;18.66;61.36;99925.19;7390230;19;1717;-34
2024/02/10 05:49:19;;;;;;;;;;;;;;;19.12;60.61;99929.56;7388554;19;1692;-33
2024/02/10 05:51:48;;;;;;;;;;;;;;;19.17;60.30;99916.56;7389608;19;1661;-34
2024/02/10 05:54:17;;;;;;;;;;;;;;;19.18;60.27;99932.47;7388105;19;1712;-34
2024/02/10 05:56:46;;;;;;;;;;;;;;;18.96;60.83;99933.84;7390244;19;1773;-33
2024/02/10 05:59:14;;;;;;;;;;;;;;;18.89;60.94;99946.16;7388989;19;1856;-33
2024/02/10 06:01:47;;;;;;;;;;;;;;;18.80;61.19;99957.78;7390122;19;1401;-34
2024/02/10 06:04:18;;;;;;;;;;;;;;;18.74;61.22;99945.84;7389994;19;1534;-34
2024/02/10 06:06:47;;;;;;;;;;;;;;;18.90;61.35;99947.00;7391762;19;987;-33
2024/02/10 06:09:16;;;;;;;;;;;;;;;19.01;60.78;99952.94;7390567;19;1116;-33
2024/02/10 06:11:44;;;;;;;;;;;;;;;18.88;61.08;99953.34;7389807;19;1391;-33
2024/02/10 06:14:12;;;;;;;;;;;;;;;18.80;61.26;99955.09;7386726;19;1712;-34
2024/02/10 06:16:40;;;;;;;;;;;;;;;18.71;61.37;99958.69;7389063;19;1519;-34
2024/02/10 06:19:09;;;;;;;;;;;;;;;18.61;61.52;99962.28;7387991;19;1859;-33
2024/02/10 06:21:40;;;;;;;;;;;;;;;19.08;60.62;99966.59;7389422;19;1551;-34
2024/02/10 06:24:12;;;;;;;;;;;;;;;19.26;60.47;99962.03;7389209;19;1444;-34
2024/02/10 06:26:41;;;;;;;;;;;;;;;19.23;60.36;99970.38;7389420;19;1051;-34
2024/02/10 06:29:10;;;;;;;;;;;;;;;18.91;61.08;99964.75;7390056;19;1803;-34
2024/02/10 06:31:38;;;;;;;;;;;;;;;18.81;61.74;99971.03;7396218;19;1511;-36
2024/02/10 06:34:08;;;;;;;;;;;;;;;18.74;61.84;99986.03;7392049;19;1563;-36
2024/02/10 06:36:36;;;;;;;;;;;;;;;18.72;62.40;99979.97;7392682;19;1362;-36
2024/02/10 06:39:09;;;;;;;;;;;;;;;19.16;61.56;99979.19;7392006;19;1861;-36
2024/02/10 06:41:37;;;;;;;;;;;;;;;19.26;61.12;99980.78;7395018;19;1342;-36
2024/02/10 06:44:09;;;;;;;;;;;;;;;19.32;61.04;99990.03;7395950;19;1842;-35
2024/02/10 06:46:37;;;;;;;;;;;;;;;19.12;61.55;100001.94;7394253;19;1354;-36
2024/02/10 06:49:06;;;;;;;;;;;;;;;18.98;62.09;100004.19;7395369;19;1775;-35
2024/02/10 06:51:35;;;;;;;;;;;;;;;18.86;62.62;100002.69;7396021;19;1386;-35
2024/02/10 06:54:03;;;;;;;;;;;;;;;18.80;62.52;100006.00;7396190;19;1746;-35
2024/02/10 06:56:34;;;;;;;;;;;;;;;18.81;62.10;100007.69;7395056;19;1748;-33
2024/02/10 06:59:03;;;;;;;;;;;;;;;19.27;61.18;100013.78;7392944;19;1857;-33
2024/02/10 07:01:32;;;;;;;;;;;;;;;19.39;60.95;100017.91;7395782;19;1669;-33
2024/02/10 07:04:02;;;;;;;;;;;;;;;19.47;60.36;100001.88;7389655;19;966;-33
2024/02/10 07:06:31;;;;;;;;;;;;;;;19.48;58.61;100011.59;7375908;19;1887;-33
2024/02/10 07:09:05;;;;;;;;;;;;;;;19.44;58.35;100014.75;7390095;19;1838;-33
2024/02/10 07:11:35;;;;;;;;;;;;;;;19.46;58.92;100018.97;7385409;19;1445;-34
2024/02/10 07:14:04;;;;;;;;;;;;;;;19.62;58.74;100031.66;7393398;19;1265;-33
2024/02/10 07:16:33;;;;;;;;;;;;;;;19.54;58.41;100030.75;7391516;19;1225;-33
2024/02/10 07:19:02;;;;;;;;;;;;;;;19.54;58.89;100036.13;7390248;19;1850;-33
2024/02/10 07:21:30;;;;;;;;;;;;;;;19.45;58.27;100033.34;7390411;19;1264;-33
2024/02/10 07:24:05;;;;;;;;;;;;;;;19.45;58.28;100022.63;7390438;19;1382;-33
2024/02/10 07:26:37;;;;;;;;;;;;;;;19.42;58.67;100030.16;7387709;19;1118;-33
2024/02/10 07:29:06;;;;;;;;;;;;;;;19.42;58.73;100019.44;7390944;19;1906;-33
2024/02/10 07:31:34;;;;;;;;;;;;;;;19.26;58.08;100028.19;7390403;19;1139;-33
2024/02/10 07:34:02;;;;;;;;;;;;;;;19.26;57.19;100023.66;7390578;19;1504;-33
2024/02/10 07:36:34;;;;;;;;;;;;;;;19.34;57.14;100025.59;7389255;19;1812;-33
2024/02/10 07:39:03;;;;;;;;;;;;;;;19.46;57.00;100018.97;7390253;19;1861;-33
2024/02/10 07:41:31;;;;;;;;;;;;;;;19.61;57.03;100031.78;7385674;19;2395;-33
2024/02/10 07:44:02;;;;;;;;;;;;;;;19.71;56.64;100032.56;7392044;19;1779;-33
2024/02/10 07:46:32;;;;;;;;;;;;;;;19.83;56.59;100025.09;7391769;19;1029;-33
2024/02/10 07:49:01;;;;;;;;;;;;;;;19.89;56.44;100037.03;7389131;19;1482;-33
2024/02/10 07:51:30;;;;;;;;;;;;;;;19.97;56.54;100029.03;7390354;19;1396;-33
2024/02/10 07:53:59;;;;;;;;;;;;;;;20.01;56.54;100022.34;7389531;19;1319;-33
2024/02/10 07:56:28;;;;;;;;;;;;;;;20.02;56.53;100019.50;7389197;19;1757;-33
2024/02/10 07:58:59;;;;;;;;;;;;;;;20.01;56.76;100022.34;7391115;19;1788;-33
2024/02/10 08:01:30;;;;;;;;;;;;;;;20.08;56.65;100019.88;7387611;19;1896;-33
2024/02/10 08:03:58;;;;;;;;;;;;;;;20.17;56.42;100019.72;7390581;19;1524;-33
2024/02/10 08:06:27;;;;;;;;;;;;;;;20.24;56.30;100020.75;7389437;19;1250;-33
2024/02/10 08:08:58;;;;;;;;;;;;;;;20.29;56.23;100014.06;7389128;19;1207;-33
2024/02/10 08:11:27;;;;;;;;;;;;;;;20.30;56.15;100027.34;7390347;19;1066;-33
2024/02/10 08:13:56;;;;;;;;;;;;;;;20.32;56.06;100008.38;7391386;19;1817;-33
2024/02/10 08:16:27;;;;;;;;;;;;;;;20.36;55.95;100015.09;7388990;19;1219;-33
2024/02/10 08:18:59;;;;;;;;;;;;;;;20.34;56.09;100015.25;7389557;19;1518;-32
2024/02/10 08:21:30;;;;;;;;;;;;;;;20.40;56.00;100027.19;7385361;19;1900;-33
2024/02/10 08:23:59;;;;;;;;;;;;;;;20.46;55.72;100021.19;7388743;19;1823;-33
2024/02/10 08:26:28;;;;;;;;;;;;;;;20.31;56.19;100028.16;7387958;19;1607;-33
2024/02/10 08:28:59;;;;;;;;;;;;;;;19.95;57.00;99991.59;7392110;19;1633;-33
2024/02/10 08:31:30;;;;;;;;;;;;;;;19.29;57.79;99928.69;7389042;19;1566;-33
2024/02/10 08:34:01;;;;;;;;;;;;;;;19.48;58.36;99995.50;7388980;19;1559;-33
2024/02/10 08:36:31;;;;;;;;;;;;;;;19.61;58.16;100019.22;7390172;19;1059;-33
2024/02/10 08:39:03;;;;;;;;;;;;;;;19.88;57.44;99989.75;7389439;19;1914;-33
2024/02/10 08:41:33;;;;;;;;;;;;;;;20.13;56.85;99994.19;7386111;19;1858;-33
2024/02/10 08:44:01;;;;;;;;;;;;;;;19.88;57.34;99993.25;7390824;19;1772;-33
2024/02/10 08:46:30;;;;;;;;;;;;;;;19.67;58.04;99990.94;7389811;19;1599;-33
2024/02/10 08:49:00;;;;;;;;;;;;;;;19.44;58.50;99994.16;7389817;19;1038;-32
2024/02/10 08:51:30;;;;;;;;;;;;;;;19.54;58.61;99972.59;7387957;19;1794;-33
2024/02/10 08:53:59;;;;;;;;;;;;;;;19.85;57.61;99975.63;7386685;19;1894;-33
2024/02/10 08:56:29;;;;;;;;;;;;;;;19.94;57.29;99971.16;7388512;19;1480;-33
2024/02/10 08:58:58;;;;;;;;;;;;;;;19.71;57.87;99962.81;7391070;19;1768;-33
2024/02/10 09:01:27;;;;;;;;;;;;;;;19.56;58.49;99977.81;7385966;19;1857;-33
2024/02/10 09:03:56;;;;;;;;;;;;;;;19.43;58.71;99978.22;7387403;19;1245;-33
2024/02/10 09:06:27;;;;;;;;;;;;;;;19.62;58.35;99961.06;7388442;19;1936;-33
2024/02/10 09:08:55;;;;;;;;;;;;;;;19.92;57.78;99966.97;7387825;19;1447;-33
2024/02/10 09:11:25;;;;;;;;;;;;;;;19.83;57.80;99983.00;7383271;19;1306;-33
2024/02/10 09:13:53;;;;;;;;;;;;;;;19.65;58.25;99985.72;7388808;19;1189;-33
2024/02/10 09:16:26;;;;;;;;;;;;;;;19.50;58.64;99999.88;7387542;19;1211;-33
2024/02/10 09:18:54;;;;;;;;;;;;;;;19.41;58.86;99994.44;7386646;19;1427;-33
2024/02/10 09:21:23;;;;;;;;;;;;;;;19.66;58.39;99971.31;7384288;19;1904;-33
2024/02/10 09:23:53;;;;;;;;;;;;;;;19.80;57.91;99988.69;7384519;19;1649;-33
2024/02/10 09:26:22;;;;;;;;;;;;;;;19.68;58.46;99996.13;7386896;19;1819;-33
2024/02/10 09:28:50;;;;;;;;;;;;;;;18.88;58.71;99882.88;7388512;19;1250;-33
2024/02/10 09:31:19;;;;;;;;;;;;;;;19.41;59.00;99988.25;7386969;19;1492;-33
2024/02/10 09:33:47;;;;;;;;;;;;;;;19.47;58.76;99976.91;7385126;19;1619;-33
2024/02/10 09:36:16;;;;;;;;;;;;;;;19.80;58.07;99980.66;7387292;19;1479;-33
2024/02/10 09:38:45;;;;;;;;;;;;;;;19.53;58.51;99978.94;7384643;19;1013;-33
2024/02/10 09:41:17;;;;;;;;;;;;;;;19.51;57.23;99972.06;7379201;19;1858;-33
2024/02/10 09:43:48;;;;;;;;;;;;;;;19.93;56.09;99971.31;7381302;19;1231;-33
2024/02/10 09:46:16;;;;;;;;;;;;;;;20.36;55.21;99969.47;7382124;19;1614;-33
2024/02/10 09:48:47;;;;;;;;;;;;;;;20.35;55.42;99970.44;7381416;19;1504;-33
2024/02/10 09:51:16;;;;;;;;;;;;;;;20.34;55.67;99964.25;7381339;19;1745;-33
2024/02/10 09:53:44;;;;;;;;;;;;;;;20.28;55.64;99964.91;7381028;19;1771;-33
2024/02/10 09:56:13;;;;;;;;;;;;;;;20.23;56.03;99956.47;7384392;19;1824;-33
2024/02/10 09:58:46;;;;;;;;;;;;;;;20.26;56.05;99957.00;7382279;19;1309;-33
2024/02/10 10:01:16;;;;;;;;;;;;;;;20.27;55.93;99957.84;7380760;19;1860;-33
2024/02/10 10:03:44;;;;;;;;;;;;;;;20.26;55.97;99970.44;7381193;19;1202;-33
2024/02/10 10:06:14;;;;;;;;;;;;;;;20.25;55.98;99960.72;7381413;19;1274;-33
2024/02/10 10:08:42;;;;;;;;;;;;;;;20.25;56.10;99955.34;7382618;19;1107;-33
2024/02/10 10:11:11;;;;;;;;;;;;;;;20.27;56.16;99966.75;7384799;19;1493;-33
2024/02/10 10:13:40;;;;;;;;;;;;;;;20.25;56.42;99974.13;7381564;19;1845;-33
2024/02/10 10:16:13;;;;;;;;;;;;;;;20.29;56.19;99971.94;7381641;19;1270;-33
2024/02/10 10:18:42;;;;;;;;;;;;;;;20.30;56.19;99979.00;7381698;19;1012;-33
2024/02/10 10:21:12;;;;;;;;;;;;;;;20.30;56.22;99962.91;7380297;19;1914;-33
2024/02/10 10:23:41;;;;;;;;;;;;;;;20.36;56.07;99967.59;7379973;19;1750;-33
2024/02/10 10:26:12;;;;;;;;;;;;;;;20.43;56.27;99973.16;7374379;19;1556;-32
2024/02/10 10:28:40;;;;;;;;;;;;;;;20.54;56.10;99945.16;7379762;19;1443;-33
2024/02/10 10:31:09;;;;;;;;;;;;;;;20.70;55.55;99963.19;7379053;19;1484;-33
2024/02/10 10:33:44;;;;;;;;;;;;;;;20.60;55.90;99958.78;7379030;19;1459;-33
2024/02/10 10:36:14;;;;;;;;;;;;;;;20.48;56.36;99954.72;7377496;19;1460;-33
2024/02/10 10:38:42;;;;;;;;;;;;;;;20.10;57.24;99962.31;7376599;19;1445;-33
2024/02/10 10:41:11;;;;;;;;;;;;;;;19.70;58.17;99955.75;7382862;19;1865;-33
2024/02/10 10:43:40;;;;;;;;;;;;;;;19.54;58.86;99958.34;7379845;19;1445;-33
2024/02/10 10:46:09;;;;;;;;;;;;;;;19.38;59.03;99940.31;7377850;19;1661;-33
2024/02/10 10:48:40;;;;;;;;;;;;;;;19.36;59.07;99959.25;7380057;19;1370;-33
2024/02/10 10:51:10;;;;;;;;;;;;;;;19.33;59.15;99954.19;7385093;19;2325;-33
2024/02/10 10:53:41;;;;;;;;;;;;;;;19.60;58.57;99938.94;7381543;19;1550;-33
2024/02/10 10:56:10;;;;;;;;;;;;;;;19.74;58.25;99951.78;7382182;19;1420;-33
2024/02/10 10:58:42;;;;;;;;;;;;;;;19.68;58.54;99944.34;7382928;19;1625;-33
2024/02/10 11:01:11;;;;;;;;;;;;;;;19.57;58.71;99941.94;7380737;19;1849;-33
2024/02/10 11:03:43;;;;;;;;;;;;;;;19.38;59.10;99951.88;7383773;19;1710;-33
2024/02/10 11:06:13;;;;;;;;;;;;;;;19.32;59.51;99946.28;7383151;19;1486;-33
2024/02/10 11:08:45;;;;;;;;;;;;;;;19.65;58.80;99934.75;7382407;19;1642;-33
2024/02/10 11:11:15;;;;;;;;;;;;;;;19.83;58.54;99934.69;7386791;19;941;-33
2024/02/10 11:13:43;;;;;;;;;;;;;;;19.73;58.75;99928.63;7383269;19;1299;-33
2024/02/10 11:16:13;;;;;;;;;;;;;;;19.62;58.90;99918.16;7384814;19;1546;-33
2024/02/10 11:18:45;;;;;;;;;;;;;;;19.47;59.41;99921.41;7390508;19;1029;-34
2024/02/10 11:21:18;;;;;;;;;;;;;;;19.42;59.49;99925.59;7390854;19;1850;-33
2024/02/10 11:23:57;;;;;;;;;;;;;;;19.78;58.88;99934.34;7390839;19;1490;-33
2024/02/10 11:26:26;;;;;;;;;;;;;;;19.89;58.59;99921.66;7393143;19;1835;-33
2024/02/10 11:29:00;;;;;;;;;;;;;;;19.70;58.85;99926.25;7391143;19;1273;-33
2024/02/10 11:31:29;;;;;;;;;;;;;;;19.51;59.42;99916.59;7391166;19;1134;-33
2024/02/10 11:34:04;;;;;;;;;;;;;;;19.32;59.04;99860.50;7391002;19;1492;-33
2024/02/10 11:36:34;;;;;;;;;;;;;;;20.19;57.99;99905.00;7390730;19;1360;-33
2024/02/10 11:39:03;;;;;;;;;;;;;;;20.47;57.03;99899.31;7390088;19;1851;-33
2024/02/10 11:41:31;;;;;;;;;;;;;;;20.69;56.63;99889.81;7389525;19;1846;-33
2024/02/10 11:43:59;;;;;;;;;;;;;;;20.75;56.41;99891.81;7392853;19;1543;-33
2024/02/10 11:46:29;;;;;;;;;;;;;;;20.81;56.44;99890.28;7390689;19;1581;-33
2024/02/10 11:49:00;;;;;;;;;;;;;;;20.86;56.33;99893.31;7389774;19;1599;-33
2024/02/10 11:51:29;;;;;;;;;;;;;;;20.92;56.23;99894.50;7389320;19;1522;-33
2024/02/10 11:53:58;;;;;;;;;;;;;;;20.93;56.29;99893.47;7390607;19;1520;-33
2024/02/10 11:56:28;;;;;;;;;;;;;;;20.89;56.23;99887.63;7390866;19;1483;-33
2024/02/10 11:58:58;;;;;;;;;;;;;;;20.81;56.24;99906.41;7391467;19;1133;-34
2024/02/10 12:01:26;;;;;;;;;;;;;;;20.82;56.49;99902.72;7389069;19;1857;-33
2024/02/10 12:03:55;;;;;;;;;;;;;;;20.80;56.54;99910.13;7391497;19;1181;-33
2024/02/10 12:06:26;;;;;;;;;;;;;;;20.81;56.61;99909.09;7390468;19;1480;-33
2024/02/10 12:08:54;;;;;;;;;;;;;;;20.79;56.60;99906.59;7389582;19;1385;-34
2024/02/10 12:11:24;;;;;;;;;;;;;;;20.90;56.42;99889.28;7390886;19;1274;-33
2024/02/10 12:13:52;;;;;;;;;;;;;;;21.04;56.06;99928.91;7390854;19;1148;-33
2024/02/10 12:16:20;;;;;;;;;;;;;;;21.01;56.25;99885.41;7390480;19;1557;-33
2024/02/10 12:18:49;;;;;;;;;;;;;;;21.01;56.19;99880.88;7390209;19;1152;-33
2024/02/10 12:21:19;;;;;;;;;;;;;;;21.12;56.00;99879.66;7388352;19;1887;-35
2024/02/10 12:23:52;;;;;;;;;;;;;;;21.25;55.84;99882.66;7388567;19;1520;-34
2024/02/10 12:26:22;;;;;;;;;;;;;;;21.23;55.76;99886.56;7391878;19;1583;-44
2024/02/10 12:28:51;;;;;;;;;;;;;;;21.16;56.04;99886.38;7389971;19;1207;-33
2024/02/10 12:31:20;;;;;;;;;;;;;;;21.12;56.16;99886.91;7388322;19;1226;-33
2024/02/10 12:33:50;;;;;;;;;;;;;;;21.09;56.09;99881.84;7388598;19;1378;-33
2024/02/10 12:36:20;;;;;;;;;;;;;;;21.11;56.18;99894.13;7388845;19;1314;-33
2024/02/10 12:38:51;;;;;;;;;;;;;;;21.03;56.46;99869.97;7388593;19;1713;-33
2024/02/10 12:41:19;;;;;;;;;;;;;;;20.99;56.35;99866.78;7389374;19;1861;-33
2024/02/10 12:43:48;;;;;;;;;;;;;;;21.06;56.27;99867.75;7388266;19;1195;-33
2024/02/10 12:46:17;;;;;;;;;;;;;;;20.98;56.38;99869.63;7388760;19;1594;-33
2024/02/10 12:48:45;;;;;;;;;;;;;;;20.98;56.40;99867.75;7387783;19;1289;-33
2024/02/10 12:51:15;;;;;;;;;;;;;;;20.94;56.61;99879.03;7386514;19;1630;-33
2024/02/10 12:53:43;;;;;;;;;;;;;;;20.98;56.63;99875.81;7387321;19;1217;-33
2024/02/10 12:56:17;;;;;;;;;;;;;;;20.89;56.83;99876.00;7390837;19;1278;-33
2024/02/10 12:58:46;;;;;;;;;;;;;;;20.87;57.07;99878.88;7390170;19;986;-33
2024/02/10 13:01:14;;;;;;;;;;;;;;;20.81;57.01;99875.00;7388385;19;1857;-33
2024/02/10 13:03:43;;;;;;;;;;;;;;;20.82;57.21;99881.22;7386819;19;1859;-34
2024/02/10 13:06:11;;;;;;;;;;;;;;;20.87;57.00;99870.81;7385300;19;1930;-33